South Elgin, IL (60177)

5:58 PM CST on February 14, 2016 (GMT -0600)
Silver Glen | | Change Station
CLOSE
Current Station
Personal Weather Station
Location: Saint Charles, IL
Elevation: 823 ft
Nearby Weather Stations

Elev 823 ft 41.97 °N, 88.33 °W | Updated 1 minute ago

Light Snow
Light Snow
16.9 °F
Feels Like 12 °F
N
3.4
Wind Variable Wind from East
Gusts 4.9 mph

Today
High -- | Low -- °F
--% Chance of Precip.
Yesterday
High -- | Low -- °F
Precip. -- in
Pressure 30.09 in
Visibility 1.5 miles
Clouds Overcast 1900 ft
Windchill 12 °F
Dew Point 9 °F
Humidity 71%
Rainfall 0.00 in
Snow Depth Not available.
6:51 AM 5:24 PM
Waxing Crescent, 46% visible
METAR KDPA 142352Z 12012KT 1 1/2SM -SN OVC019 M08/M12 A3005 RMK AO2 SLP190 P0000 60000 T10831117 11083 21094 56015
Pressure 30.09 in
Visibility 1.5 miles
Clouds Overcast 1900 ft
Windchill 12 °F
Dew Point 9 °F
Humidity 71%
Rainfall 0.00 in
Snow Depth Not available.
6:51 AM 5:24 PM
Waxing Crescent, 46% visible
METAR KDPA 142352Z 12012KT 1 1/2SM -SN OVC019 M08/M12 A3005 RMK AO2 SLP190 P0000 60000 T10831117 11083 21094 56015

10-Day Weather Forecast

Almanac

Astronomy

Feb. 14, 2016 Rise Set
Actual Time
Civil Twilight
Nautical Twilight
Astronomical Twilight
Moon
Length of Visible Light
Length of Day
Tomorrow will be .
, % of the Moon is Illuminated

Today's Extremes

State Highs State Lows

Community

WunderPhotos

Upload Photos

1,892,929 photos uploaded!

WunderBlog® & News

Nearby

Air Quality

  Air Quality AQ Index Pollutant
Not available.

Snow Depth

Station Depth Elevation

Earthquake Activity

City Distance Mag. Time & Date
Minimum magnitude displayed is 2.5.

Coastal Water Temperatures

Place Temperature

Stations

Nearby Weather Stations

Station Location Temp. Windchill Dew Point Humidity Wind Precip. Elev Updated Type
                   

Watches & Warnings

There are currently no watches in effect.